createdAt,value
2023-03-26T00:00:06.135Z,2.50
2023-03-26T00:04:13.848Z,2.70
2023-03-26T00:08:22.378Z,2.50
2023-03-26T00:12:30.013Z,2.30
2023-03-26T00:16:37.618Z,2.00
2023-03-26T00:20:45.801Z,2.10
2023-03-26T00:24:53.719Z,2.60
2023-03-26T00:29:03.970Z,2.30
2023-03-26T00:33:17.351Z,2.30
2023-03-26T00:37:26.648Z,2.70
2023-03-26T00:41:37.460Z,3.20
2023-03-26T00:45:44.929Z,3.50
2023-03-26T00:49:52.616Z,3.00
2023-03-26T00:54:00.909Z,3.10
2023-03-26T00:58:10.367Z,2.80
2023-03-26T01:02:21.184Z,3.10
2023-03-26T01:06:33.164Z,2.90
2023-03-26T01:10:42.265Z,2.30
2023-03-26T01:14:52.054Z,2.50
2023-03-26T01:19:00.971Z,3.10
2023-03-26T01:23:10.140Z,2.30
2023-03-26T01:27:25.843Z,2.50
2023-03-26T01:31:39.773Z,2.90
2023-03-26T01:35:51.414Z,2.80
2023-03-26T01:40:07.309Z,2.70
2023-03-26T01:44:21.188Z,2.80
2023-03-26T01:48:35.114Z,2.70
2023-03-26T01:52:42.981Z,2.70
2023-03-26T01:56:57.063Z,3.20
2023-03-26T02:01:12.885Z,3.40
2023-03-26T02:05:24.300Z,3.40
2023-03-26T02:09:35.056Z,3.20
2023-03-26T02:13:44.849Z,3.60
2023-03-26T02:17:53.563Z,3.50
2023-03-26T02:22:02.487Z,2.90
2023-03-26T02:26:12.221Z,2.90
2023-03-26T02:30:25.743Z,2.80
2023-03-26T02:34:33.800Z,3.70
2023-03-26T02:38:41.751Z,4.10
2023-03-26T02:42:49.632Z,3.50
2023-03-26T02:46:58.393Z,3.60
2023-03-26T02:51:07.797Z,3.10
2023-03-26T02:55:15.492Z,2.60
2023-03-26T02:59:23.397Z,2.70
2023-03-26T03:03:31.254Z,2.50
2023-03-26T03:07:39.195Z,2.90
2023-03-26T03:11:47.632Z,2.80
2023-03-26T03:15:56.541Z,2.90
2023-03-26T03:20:06.216Z,2.90
2023-03-26T03:24:14.109Z,2.60
2023-03-26T03:28:22.795Z,2.00
2023-03-26T03:32:30.819Z,1.90
2023-03-26T03:36:39.523Z,1.50
2023-03-26T03:40:47.601Z,1.70
2023-03-26T03:44:55.501Z,1.50
2023-03-26T03:49:03.996Z,1.20
2023-03-26T03:53:16.570Z,1.30
2023-03-26T03:57:24.385Z,1.20
2023-03-26T04:01:33.137Z,1.30
2023-03-26T04:05:41.311Z,1.20
2023-03-26T04:09:48.461Z,1.30
2023-03-26T04:13:56.050Z,1.20
2023-03-26T04:18:04.026Z,1.00
2023-03-26T04:22:12.225Z,1.30
2023-03-26T04:26:22.352Z,1.10
2023-03-26T04:30:31.691Z,1.00
2023-03-26T04:34:39.880Z,1.10
2023-03-26T04:38:49.383Z,1.30
2023-03-26T04:43:00.163Z,0.90
2023-03-26T04:47:08.073Z,0.80
2023-03-26T04:51:18.619Z,0.70
2023-03-26T04:55:27.716Z,0.90
2023-03-26T04:59:37.525Z,0.90
2023-03-26T05:03:46.066Z,0.70
2023-03-26T05:07:53.727Z,0.80
2023-03-26T05:12:01.490Z,0.90
2023-03-26T05:16:10.512Z,0.90
2023-03-26T05:20:22.048Z,1.30
2023-03-26T05:24:29.805Z,1.20
2023-03-26T05:28:37.345Z,2.20
2023-03-26T05:32:44.794Z,1.40
2023-03-26T05:36:53.169Z,1.30
2023-03-26T05:41:06.387Z,1.30
2023-03-26T05:45:16.707Z,1.30
2023-03-26T05:49:24.581Z,1.40
2023-03-26T05:53:32.866Z,2.10
2023-03-26T05:57:40.496Z,1.80
2023-03-26T06:01:51.227Z,1.50
2023-03-26T06:05:59.764Z,1.60
2023-03-26T06:10:09.652Z,1.50
2023-03-26T06:14:17.260Z,1.30
2023-03-26T06:18:25.731Z,1.30
2023-03-26T06:22:34.405Z,1.80
2023-03-26T06:26:42.278Z,1.60
2023-03-26T06:30:50.343Z,1.60
2023-03-26T06:34:58.241Z,1.50
2023-03-26T06:39:07.586Z,1.60
2023-03-26T06:43:16.083Z,1.70
2023-03-26T06:47:24.160Z,1.90
2023-03-26T06:51:32.292Z,1.60
2023-03-26T06:55:39.944Z,1.80
2023-03-26T06:59:48.632Z,1.80
2023-03-26T07:03:57.146Z,2.10
2023-03-26T07:08:08.407Z,1.30
2023-03-26T07:12:18.503Z,1.70
2023-03-26T07:16:28.738Z,1.80
2023-03-26T07:20:38.066Z,1.40
2023-03-26T07:24:47.949Z,2.00
2023-03-26T07:29:04.429Z,1.90
2023-03-26T07:33:16.376Z,2.10
2023-03-26T07:37:36.950Z,2.00
2023-03-26T07:41:48.004Z,1.20
2023-03-26T07:45:58.655Z,1.60
2023-03-26T07:50:09.969Z,1.30
2023-03-26T07:54:19.312Z,1.60
2023-03-26T07:58:41.408Z,2.10
2023-03-26T08:03:25.135Z,2.30
2023-03-26T08:07:45.271Z,1.70
2023-03-26T08:11:59.176Z,1.40
2023-03-26T08:16:12.812Z,1.40
2023-03-26T08:20:34.404Z,1.00
2023-03-26T08:24:49.434Z,1.10
2023-03-26T08:29:05.933Z,1.00
2023-03-26T08:33:20.804Z,1.30
2023-03-26T08:37:29.515Z,1.30
2023-03-26T08:42:12.769Z,1.60
2023-03-26T08:46:40.839Z,1.50
2023-03-26T08:51:08.014Z,1.40
2023-03-26T08:55:52.094Z,1.30
2023-03-26T09:04:51.811Z,1.10
2023-03-26T09:09:43.284Z,1.10
2023-03-26T09:14:23.093Z,1.20
2023-03-26T09:19:01.515Z,1.60
2023-03-26T09:23:28.152Z,1.80
2023-03-26T09:27:46.633Z,1.80
2023-03-26T09:32:31.478Z,1.50
2023-03-26T09:36:59.304Z,1.20
2023-03-26T09:41:12.487Z,1.30
2023-03-26T09:45:48.276Z,1.40
2023-03-26T09:50:04.204Z,1.10
2023-03-26T09:54:52.372Z,1.40
2023-03-26T09:59:32.124Z,1.20
2023-03-26T10:03:53.570Z,1.30
2023-03-26T10:08:13.025Z,1.30
2023-03-26T10:12:29.296Z,1.00
2023-03-26T10:16:46.506Z,1.10
2023-03-26T10:21:01.388Z,1.40
2023-03-26T10:25:27.466Z,1.20
2023-03-26T10:29:53.131Z,1.20
2023-03-26T10:34:28.687Z,1.20
2023-03-26T10:38:53.013Z,1.50
2023-03-26T10:44:05.544Z,1.50
2023-03-26T10:48:42.536Z,2.00
2023-03-26T10:52:53.945Z,1.50
2023-03-26T10:57:03.967Z,1.40
2023-03-26T11:01:20.412Z,2.10
2023-03-26T11:05:39.748Z,1.70
2023-03-26T11:09:52.985Z,1.80
2023-03-26T11:14:10.282Z,1.60
2023-03-26T11:18:21.080Z,1.70
2023-03-26T11:22:36.251Z,1.60
2023-03-26T11:26:53.248Z,1.80
2023-03-26T11:31:09.121Z,1.80
2023-03-26T11:35:40.400Z,2.00
2023-03-26T11:39:56.464Z,1.60
2023-03-26T11:44:08.936Z,1.60
2023-03-26T11:48:20.595Z,2.00
2023-03-26T11:52:29.156Z,1.80
2023-03-26T11:56:39.288Z,1.40
2023-03-26T12:00:49.377Z,1.50
2023-03-26T12:05:12.486Z,1.80
2023-03-26T12:09:21.395Z,1.80
2023-03-26T12:13:38.136Z,1.80
2023-03-26T12:17:52.625Z,1.60
2023-03-26T12:22:00.495Z,1.40
2023-03-26T12:26:22.484Z,1.50
2023-03-26T12:30:34.040Z,1.60
2023-03-26T12:34:41.934Z,1.50
2023-03-26T12:39:42.757Z,2.00
2023-03-26T12:44:52.999Z,1.60
2023-03-26T12:48:03.945Z,1.60
2023-03-26T12:52:33.266Z,1.50
2023-03-26T12:56:44.131Z,1.60
2023-03-26T13:00:57.045Z,1.60
2023-03-26T13:05:15.109Z,1.50
2023-03-26T13:09:41.611Z,1.70
2023-03-26T13:14:01.006Z,2.40
2023-03-26T13:18:21.663Z,1.80
2023-03-26T13:22:35.365Z,1.70
2023-03-26T13:26:53.362Z,1.90
2023-03-26T13:31:06.684Z,1.70
2023-03-26T13:35:31.575Z,1.70
2023-03-26T13:39:46.991Z,1.50
2023-03-26T13:44:04.100Z,1.80
2023-03-26T13:48:17.439Z,1.80
2023-03-26T13:52:28.294Z,1.70
2023-03-26T13:56:38.240Z,1.70
2023-03-26T14:00:56.332Z,2.10
2023-03-26T14:05:08.486Z,1.90
2023-03-26T14:09:20.993Z,2.20
2023-03-26T14:13:33.124Z,1.80
2023-03-26T14:17:47.114Z,1.50
2023-03-26T14:22:09.273Z,2.10
2023-03-26T14:26:27.258Z,1.60
2023-03-26T14:30:56.642Z,1.90
2023-03-26T14:35:13.611Z,2.30
2023-03-26T14:39:40.840Z,2.10
2023-03-26T14:44:20.137Z,2.00
2023-03-26T14:48:51.872Z,2.00
2023-03-26T14:53:02.965Z,1.90
2023-03-26T14:57:49.809Z,2.10
2023-03-26T15:02:30.320Z,2.10
2023-03-26T15:07:09.014Z,2.30
2023-03-26T15:11:23.023Z,2.70
2023-03-26T15:16:08.661Z,1.90
2023-03-26T15:20:34.766Z,1.80
2023-03-26T15:25:32.065Z,2.40
2023-03-26T15:29:57.012Z,2.30
2023-03-26T15:34:38.592Z,2.90
2023-03-26T15:39:24.797Z,1.40
2023-03-26T15:44:24.786Z,1.70
2023-03-26T15:48:35.701Z,1.50
2023-03-26T15:52:52.045Z,1.30
2023-03-26T15:57:20.404Z,1.00
2023-03-26T16:01:47.530Z,1.20
2023-03-26T16:06:15.915Z,1.30
2023-03-26T16:10:29.618Z,1.40
2023-03-26T16:14:46.123Z,1.50
2023-03-26T16:19:00.712Z,2.50
2023-03-26T16:23:11.737Z,2.60
2023-03-26T16:27:34.371Z,2.40
2023-03-26T16:32:05.829Z,5.00
2023-03-26T16:36:34.857Z,7.20
2023-03-26T16:40:58.298Z,7.50
2023-03-26T16:45:19.168Z,12.30
2023-03-26T16:49:34.403Z,9.70
2023-03-26T16:53:46.783Z,7.10
2023-03-26T16:57:59.633Z,7.10
2023-03-26T17:02:13.865Z,8.00
2023-03-26T17:06:31.223Z,7.30
2023-03-26T17:10:44.513Z,7.80
2023-03-26T17:15:06.263Z,6.80
2023-03-26T17:19:23.226Z,5.80
2023-03-26T17:23:39.627Z,5.50
2023-03-26T17:27:52.224Z,4.00
2023-03-26T17:32:09.498Z,3.40
2023-03-26T17:36:33.659Z,3.30
2023-03-26T17:40:55.066Z,3.90
2023-03-26T17:45:05.490Z,3.80
2023-03-26T17:49:19.532Z,3.80
2023-03-26T17:53:31.420Z,3.50
2023-03-26T17:57:44.493Z,4.70
2023-03-26T18:01:56.124Z,5.00
2023-03-26T18:06:08.843Z,4.90
2023-03-26T18:10:34.238Z,4.20
2023-03-26T18:15:02.864Z,3.90
2023-03-26T18:19:22.297Z,4.30
2023-03-26T18:23:36.283Z,5.00
2023-03-26T18:27:44.760Z,4.20
2023-03-26T18:31:57.933Z,4.90
2023-03-26T18:36:07.410Z,6.80
2023-03-26T18:40:19.711Z,4.30
2023-03-26T18:44:28.228Z,4.50
2023-03-26T18:48:36.447Z,5.20
2023-03-26T18:52:44.859Z,5.60
2023-03-26T18:56:53.341Z,5.30
2023-03-26T19:01:04.115Z,5.40
2023-03-26T19:05:17.038Z,5.10
2023-03-26T19:09:31.746Z,5.10
2023-03-26T19:13:43.327Z,6.10
2023-03-26T19:17:56.951Z,5.60
2023-03-26T19:22:05.556Z,6.30
2023-03-26T19:26:14.232Z,4.80
2023-03-26T19:30:29.648Z,4.70
2023-03-26T19:34:41.235Z,5.10
2023-03-26T19:38:54.267Z,5.40
2023-03-26T19:43:03.778Z,6.40
2023-03-26T19:47:21.208Z,7.00
2023-03-26T19:51:37.069Z,7.40
2023-03-26T19:55:52.131Z,6.90
2023-03-26T20:00:01.214Z,5.70
2023-03-26T20:04:11.725Z,5.10
2023-03-26T20:08:20.370Z,4.40
2023-03-26T20:12:28.736Z,4.70
2023-03-26T20:16:37.492Z,4.60
2023-03-26T20:20:45.197Z,4.80
2023-03-26T20:24:54.906Z,6.10
2023-03-26T20:29:05.991Z,5.90
2023-03-26T20:33:19.380Z,7.00
2023-03-26T20:37:27.631Z,8.20
2023-03-26T20:41:36.040Z,8.60
2023-03-26T20:45:44.918Z,8.90
2023-03-26T20:49:52.871Z,8.60
2023-03-26T20:54:00.727Z,7.90
2023-03-26T20:58:10.037Z,6.90
2023-03-26T21:02:18.159Z,6.70
2023-03-26T21:06:26.408Z,6.30
2023-03-26T21:10:36.519Z,6.80
2023-03-26T21:14:45.619Z,5.90
2023-03-26T21:18:55.332Z,5.10
2023-03-26T21:23:09.234Z,6.00
2023-03-26T21:27:26.432Z,6.70
2023-03-26T21:31:38.404Z,6.90
2023-03-26T21:35:52.029Z,6.50
2023-03-26T21:40:12.649Z,5.90
2023-03-26T21:44:22.135Z,6.20
2023-03-26T21:48:32.242Z,7.40
2023-03-26T21:52:51.187Z,6.70
2023-03-26T21:57:14.867Z,5.60
2023-03-26T22:01:29.485Z,5.50
2023-03-26T22:05:41.671Z,5.00
2023-03-26T22:09:50.854Z,4.50
2023-03-26T22:13:58.564Z,4.40
2023-03-26T22:18:07.579Z,5.30
2023-03-26T22:22:15.681Z,5.50
2023-03-26T22:26:25.268Z,5.90
2023-03-26T22:30:32.776Z,5.50
2023-03-26T22:34:41.535Z,5.20
2023-03-26T22:38:53.289Z,5.20
2023-03-26T22:43:02.413Z,5.00
2023-03-26T22:47:10.670Z,4.50
2023-03-26T22:51:18.878Z,4.60
2023-03-26T22:55:28.193Z,5.00
2023-03-26T22:59:37.185Z,5.50
2023-03-26T23:03:44.977Z,5.50
2023-03-26T23:07:53.024Z,5.40
2023-03-26T23:12:01.392Z,5.80
2023-03-26T23:16:11.300Z,5.70
2023-03-26T23:20:20.463Z,6.10
2023-03-26T23:24:28.338Z,6.60
2023-03-26T23:28:36.960Z,5.90
2023-03-26T23:32:45.032Z,5.60
2023-03-26T23:36:53.946Z,5.20
2023-03-26T23:41:02.128Z,6.40
2023-03-26T23:45:12.637Z,5.60
2023-03-26T23:49:22.065Z,6.00
2023-03-26T23:53:33.528Z,5.30
2023-03-26T23:57:42.221Z,5.20
